createdAt,value
2018-11-04T00:02:00.913Z,97454.62
2018-11-04T00:04:28.142Z,97448.61
2018-11-04T00:06:55.346Z,97455.98
2018-11-04T00:09:22.538Z,97449.92
2018-11-04T00:11:49.747Z,97442.55
2018-11-04T00:14:16.946Z,97441.77
2018-11-04T00:16:44.113Z,97439.13
2018-11-04T00:19:11.435Z,97437.02
2018-11-04T00:21:38.656Z,97433.89
2018-11-04T00:24:05.929Z,97434.74
2018-11-04T00:26:33.245Z,97431.30
2018-11-04T00:29:00.471Z,97416.27
2018-11-04T00:31:27.624Z,97426.81
2018-11-04T00:33:54.827Z,97418.89
2018-11-04T00:36:22.036Z,97423.29
2018-11-04T00:38:49.245Z,97417.67
2018-11-04T00:41:16.402Z,97422.95
2018-11-04T00:43:43.591Z,97415.86
2018-11-04T00:46:10.757Z,97411.61
2018-11-04T00:48:37.946Z,97405.64
2018-11-04T00:51:05.259Z,97399.09
2018-11-04T00:53:32.463Z,97398.80
2018-11-04T00:55:59.706Z,97398.52
2018-11-04T00:58:26.939Z,97393.72
2018-11-04T01:00:54.521Z,97385.56
2018-11-04T01:03:21.737Z,97375.34
2018-11-04T01:05:49.008Z,97378.19
2018-11-04T01:08:16.260Z,97378.67
2018-11-04T01:10:43.497Z,97375.73
2018-11-04T01:13:10.698Z,97379.16
2018-11-04T01:15:37.913Z,97366.20
2018-11-04T01:18:05.082Z,97371.41
2018-11-04T01:20:32.295Z,97373.75
2018-11-04T01:22:59.471Z,97382.40
2018-11-04T01:25:26.686Z,97378.20
2018-11-04T01:27:53.900Z,97372.19
2018-11-04T01:30:21.169Z,97374.19
2018-11-04T01:32:48.451Z,97370.81
2018-11-04T01:35:15.657Z,97372.27
2018-11-04T01:37:42.860Z,97369.93
2018-11-04T01:40:10.527Z,97365.97
2018-11-04T01:42:38.173Z,97360.61
2018-11-04T01:45:06.688Z,97365.89
2018-11-04T01:47:33.884Z,97363.02
2018-11-04T01:50:01.198Z,97362.06
2018-11-04T01:52:28.359Z,97348.76
2018-11-04T01:54:55.538Z,97338.31
2018-11-04T01:57:22.740Z,97344.12
2018-11-04T01:59:49.940Z,97336.39
2018-11-04T02:02:17.123Z,97329.07
2018-11-04T02:04:44.376Z,97329.61
2018-11-04T02:07:11.600Z,97326.91
2018-11-04T02:09:38.830Z,97326.24
2018-11-04T02:12:06.158Z,97319.64
2018-11-04T02:14:33.379Z,97308.30
2018-11-04T02:17:00.585Z,97304.67
2018-11-04T02:19:27.759Z,97308.12
2018-11-04T02:21:54.954Z,97295.54
2018-11-04T02:24:22.212Z,97291.05
2018-11-04T02:26:49.420Z,97298.37
2018-11-04T02:29:16.585Z,97298.37
2018-11-04T02:31:43.776Z,97284.63
2018-11-04T02:34:10.981Z,97295.64
2018-11-04T02:36:38.190Z,97294.11
2018-11-04T02:39:06.101Z,97284.93
2018-11-04T02:41:33.344Z,97287.56
2018-11-04T02:44:00.550Z,97274.91
2018-11-04T02:46:27.697Z,97273.11
2018-11-04T02:48:54.985Z,97273.11
2018-11-04T02:51:22.202Z,97279.22
2018-11-04T02:53:49.348Z,97275.51
2018-11-04T02:56:16.481Z,97276.34
2018-11-04T02:58:43.679Z,97271.01
2018-11-04T03:01:10.881Z,97269.15
2018-11-04T03:03:38.110Z,97271.79
2018-11-04T03:06:05.430Z,97266.52
2018-11-04T03:08:32.574Z,97262.26
2018-11-04T03:10:59.793Z,97260.40
2018-11-04T03:13:26.989Z,97262.20
2018-11-04T03:15:54.168Z,97263.14
2018-11-04T03:18:21.341Z,97262.48
2018-11-04T03:20:48.510Z,97257.27
2018-11-04T03:23:15.781Z,97254.38
2018-11-04T03:25:43.012Z,97251.20
2018-11-04T03:28:10.525Z,97246.47
2018-11-04T03:30:38.169Z,97249.64
2018-11-04T03:33:05.382Z,97242.56
2018-11-04T03:35:32.581Z,97249.94
2018-11-04T03:37:59.779Z,97242.62
2018-11-04T03:40:27.235Z,97234.41
2018-11-04T03:42:54.420Z,97233.63
2018-11-04T03:45:21.646Z,97234.64
2018-11-04T03:47:48.844Z,97223.94
2018-11-04T03:50:16.006Z,97223.88
2018-11-04T03:52:43.166Z,97221.33
2018-11-04T03:55:10.351Z,97219.77
2018-11-04T03:57:37.503Z,97222.05
2018-11-04T04:00:05.328Z,97221.30
2018-11-04T04:02:32.447Z,97218.89
2018-11-04T04:04:59.587Z,97223.00
2018-11-04T04:07:26.748Z,97215.45
2018-11-04T04:09:53.869Z,97208.09
2018-11-04T04:12:21.017Z,97212.89
2018-11-04T04:14:48.196Z,97206.23
2018-11-04T04:17:15.351Z,97211.52
2018-11-04T04:19:42.533Z,97212.99
2018-11-04T04:22:09.718Z,97206.45
2018-11-04T04:24:36.921Z,97211.43
2018-11-04T04:27:04.299Z,97202.79
2018-11-04T04:29:31.532Z,97209.27
2018-11-04T04:31:58.727Z,97209.81
2018-11-04T04:34:25.905Z,97206.39
2018-11-04T04:36:53.080Z,97192.17
2018-11-04T04:39:20.218Z,97197.21
2018-11-04T04:41:48.234Z,97192.11
2018-11-04T04:44:15.432Z,97198.23
2018-11-04T04:46:42.584Z,97187.14
2018-11-04T04:49:09.800Z,97192.35
2018-11-04T04:51:37.064Z,97180.48
2018-11-04T04:54:04.848Z,97175.73
2018-11-04T04:56:32.003Z,97169.92
2018-11-04T04:58:59.209Z,97168.06
2018-11-04T05:01:26.368Z,97166.27
2018-11-04T05:03:53.529Z,97166.80
2018-11-04T05:06:20.620Z,97158.58
2018-11-04T05:08:47.858Z,97159.00
2018-11-04T05:11:15.111Z,97161.55
2018-11-04T05:13:42.333Z,97163.70
2018-11-04T05:16:09.537Z,97172.87
2018-11-04T05:18:36.685Z,97174.92
2018-11-04T05:21:03.944Z,97168.94
2018-11-04T05:23:31.131Z,97174.77
2018-11-04T05:25:58.277Z,97167.00
2018-11-04T05:28:25.488Z,97164.53
2018-11-04T05:30:52.668Z,97166.28
2018-11-04T05:33:19.867Z,97173.06
2018-11-04T05:35:47.040Z,97174.25
2018-11-04T05:38:14.223Z,97170.96
2018-11-04T05:40:41.383Z,97178.03
2018-11-04T05:43:08.568Z,97173.47
2018-11-04T05:45:35.714Z,97177.32
2018-11-04T05:48:02.873Z,97174.92
2018-11-04T05:50:30.083Z,97173.36
2018-11-04T05:52:57.240Z,97173.13
2018-11-04T05:55:24.417Z,97167.94
2018-11-04T05:57:51.573Z,97175.05
2018-11-04T06:00:18.704Z,97166.08
2018-11-04T06:02:45.879Z,97180.86
2018-11-04T06:05:13.044Z,97172.10
2018-11-04T06:07:40.338Z,97177.02
2018-11-04T06:10:07.564Z,97174.44
2018-11-04T06:12:35.048Z,97175.81
2018-11-04T06:15:02.424Z,97175.23
2018-11-04T06:17:29.536Z,97168.32
2018-11-04T06:19:56.752Z,97166.58
2018-11-04T06:22:23.893Z,97172.05
2018-11-04T06:24:51.090Z,97175.58
2018-11-04T06:27:18.369Z,97171.58
2018-11-04T06:29:45.529Z,97186.88
2018-11-04T06:32:12.733Z,97181.22
2018-11-04T06:34:40.062Z,97174.68
2018-11-04T06:37:07.204Z,97173.54
2018-11-04T06:39:34.383Z,97179.12
2018-11-04T06:42:01.535Z,97158.84
2018-11-04T06:44:28.738Z,97156.74
2018-11-04T06:46:55.878Z,97157.37
2018-11-04T06:49:23.081Z,97150.45
2018-11-04T06:51:50.269Z,97148.52
2018-11-04T06:54:17.448Z,97158.54
2018-11-04T06:56:44.639Z,97162.98
2018-11-04T06:59:11.811Z,97163.69
2018-11-04T07:01:38.949Z,97162.10
2018-11-04T07:04:20.405Z,97163.16
2018-11-04T07:06:48.174Z,97168.09
2018-11-04T07:09:15.639Z,97178.07
2018-11-04T07:11:43.195Z,97182.57
2018-11-04T07:14:10.372Z,97168.94
2018-11-04T07:16:37.597Z,97169.41
2018-11-04T07:19:04.824Z,97180.22
2018-11-04T07:21:32.070Z,97179.64
2018-11-04T07:23:59.224Z,97179.44
2018-11-04T07:26:26.357Z,97173.87
2018-11-04T07:28:53.548Z,97183.34
2018-11-04T07:31:20.730Z,97175.00
2018-11-04T07:33:47.900Z,97176.76
2018-11-04T07:36:15.119Z,97174.15
2018-11-04T07:38:42.315Z,97178.92
2018-11-04T07:41:09.544Z,97166.13
2018-11-04T07:43:36.775Z,97168.40
2018-11-04T07:46:04.336Z,97166.36
2018-11-04T07:48:31.498Z,97158.37
2018-11-04T07:50:58.704Z,97167.69
2018-11-04T07:53:25.837Z,97162.09
2018-11-04T07:55:53.017Z,97155.08
2018-11-04T07:58:20.187Z,97144.69
2018-11-04T08:00:47.385Z,97146.01
2018-11-04T08:03:14.546Z,97148.95
2018-11-04T08:05:41.673Z,97154.00
2018-11-04T08:08:08.820Z,97168.56
2018-11-04T08:10:36.008Z,97173.51
2018-11-04T08:13:03.154Z,97162.20
2018-11-04T08:15:30.386Z,97162.94
2018-11-04T08:17:57.616Z,97169.41
2018-11-04T08:20:24.813Z,97171.03
2018-11-04T08:22:51.980Z,97170.85
2018-11-04T08:25:19.153Z,97167.50
2018-11-04T08:27:46.432Z,97180.48
2018-11-04T08:30:13.515Z,97171.81
2018-11-04T08:32:40.704Z,97177.23
2018-11-04T08:35:07.910Z,97166.18
2018-11-04T08:37:35.103Z,97165.08
2018-11-04T08:40:02.709Z,97155.83
2018-11-04T08:42:30.260Z,97161.91
2018-11-04T08:44:57.441Z,97156.56
2018-11-04T08:47:24.636Z,97137.70
2018-11-04T08:49:51.769Z,97143.28
2018-11-04T08:52:18.948Z,97140.47
2018-11-04T08:54:46.139Z,97134.05
2018-11-04T08:57:13.634Z,97141.36
2018-11-04T08:59:41.049Z,97138.65
2018-11-04T09:02:08.226Z,97138.65
2018-11-04T09:04:35.343Z,97148.53
2018-11-04T09:07:02.556Z,97150.39
2018-11-04T09:09:29.726Z,97139.31
2018-11-04T09:11:56.941Z,97139.02
2018-11-04T09:14:24.177Z,97128.40
2018-11-04T09:16:51.312Z,97130.97
2018-11-04T09:19:18.490Z,97144.26
2018-11-04T09:21:52.575Z,97135.31
2018-11-04T09:24:19.666Z,97135.59
2018-11-04T09:26:46.874Z,97136.09
2018-11-04T09:29:14.170Z,97129.23
2018-11-04T09:31:41.339Z,97124.56
2018-11-04T09:34:08.511Z,97122.83
2018-11-04T09:36:35.810Z,97121.81
2018-11-04T09:39:03.725Z,97120.80
2018-11-04T09:41:30.861Z,97115.91
2018-11-04T09:43:58.052Z,97120.12
2018-11-04T09:46:25.225Z,97107.52
2018-11-04T09:48:52.432Z,97115.68
2018-11-04T09:51:19.553Z,97112.03
2018-11-04T09:53:46.748Z,97110.48
2018-11-04T09:56:13.972Z,97104.76
2018-11-04T09:58:41.135Z,97101.69
2018-11-04T10:01:08.298Z,97099.74
2018-11-04T10:03:35.472Z,97098.39
2018-11-04T10:06:02.645Z,97089.39
2018-11-04T10:08:29.841Z,97080.53
2018-11-04T10:10:57.054Z,97075.16
2018-11-04T10:13:24.318Z,97067.69
2018-11-04T10:15:51.425Z,97072.91
2018-11-04T10:18:18.596Z,97073.40
2018-11-04T10:20:46.117Z,97069.17
2018-11-04T10:23:12.978Z,97059.63
2018-11-04T10:25:40.184Z,97056.82
2018-11-04T10:28:07.359Z,97042.57
2018-11-04T10:30:34.541Z,97042.81
2018-11-04T10:33:01.773Z,97042.03
2018-11-04T10:35:28.962Z,97036.75
2018-11-04T10:37:56.139Z,97042.58
2018-11-04T10:40:23.472Z,97038.86
2018-11-04T10:42:50.698Z,97031.94
2018-11-04T10:45:17.905Z,97028.28
2018-11-04T10:47:45.085Z,97029.67
2018-11-04T10:50:12.833Z,97033.72
2018-11-04T10:52:40.011Z,97031.53
2018-11-04T10:55:08.105Z,97023.12
2018-11-04T10:57:35.392Z,97033.95
2018-11-04T11:00:02.677Z,97029.91
2018-11-04T11:02:29.926Z,97023.22
2018-11-04T11:04:57.146Z,97021.03
2018-11-04T11:07:24.348Z,97014.88
2018-11-04T11:09:51.583Z,97003.99
2018-11-04T11:12:18.777Z,97001.00
2018-11-04T11:14:45.969Z,97010.44
2018-11-04T11:17:13.092Z,97003.56
2018-11-04T11:19:40.285Z,97000.59
2018-11-04T11:22:07.447Z,96995.80
2018-11-04T11:24:34.667Z,96992.11
2018-11-04T11:27:01.815Z,96990.87
2018-11-04T11:29:28.997Z,96977.86
2018-11-04T11:31:56.188Z,96966.91
2018-11-04T11:34:23.373Z,96973.29
2018-11-04T11:36:50.489Z,96970.93
2018-11-04T11:39:17.629Z,96970.91
2018-11-04T11:41:44.864Z,96965.39
2018-11-04T11:44:12.089Z,96967.86
2018-11-04T11:46:39.423Z,96959.78
2018-11-04T11:49:07.101Z,96961.74
2018-11-04T11:51:34.240Z,96951.79
2018-11-04T11:54:01.475Z,96944.08
2018-11-04T11:56:28.651Z,96964.08
2018-11-04T11:58:55.909Z,96951.79
2018-11-04T12:01:23.133Z,96944.49
2018-11-04T12:03:50.332Z,96944.31
2018-11-04T12:06:17.504Z,96945.04
2018-11-04T12:08:44.718Z,96939.84
2018-11-04T12:11:11.855Z,96943.08
2018-11-04T12:13:39.019Z,96938.42
2018-11-04T12:16:06.349Z,96937.61
2018-11-04T12:18:33.532Z,96940.10
2018-11-04T12:21:00.775Z,96940.56
2018-11-04T12:23:28.008Z,96929.56
2018-11-04T12:25:55.177Z,96919.61
2018-11-04T12:28:22.349Z,96915.73
2018-11-04T12:30:49.465Z,96912.58
2018-11-04T12:33:16.608Z,96914.80
2018-11-04T12:35:43.724Z,96911.27
2018-11-04T12:38:10.905Z,96919.42
2018-11-04T12:40:38.081Z,96922.09
2018-11-04T12:43:05.295Z,96910.89
2018-11-04T12:45:32.520Z,96924.38
2018-11-04T12:47:59.644Z,96926.71
2018-11-04T12:50:26.829Z,96906.28
2018-11-04T12:52:53.973Z,96915.45
2018-11-04T12:55:21.150Z,96906.67
2018-11-04T12:57:48.338Z,96903.84
2018-11-04T13:00:16.253Z,96903.16
2018-11-04T13:02:44.276Z,96907.26
2018-11-04T13:05:11.499Z,96903.72
2018-11-04T13:07:38.738Z,96911.76
2018-11-04T13:10:07.809Z,96903.62
2018-11-04T13:12:35.277Z,96893.83
2018-11-04T13:15:02.771Z,96891.28
2018-11-04T13:17:30.007Z,96886.44
2018-11-04T13:19:57.577Z,96882.63
2018-11-04T13:22:24.772Z,96881.11
2018-11-04T13:24:52.094Z,96872.64
2018-11-04T13:27:19.260Z,96874.84
2018-11-04T13:29:46.508Z,96868.60
2018-11-04T13:32:13.772Z,96870.89
2018-11-04T13:34:40.960Z,96870.93
2018-11-04T13:37:08.093Z,96872.31
2018-11-04T13:39:35.328Z,96877.81
2018-11-04T13:42:02.545Z,96878.88
2018-11-04T13:44:29.748Z,96877.23
2018-11-04T13:46:56.966Z,96870.41
2018-11-04T13:49:24.341Z,96870.64
2018-11-04T13:51:51.437Z,96881.88
2018-11-04T13:54:18.598Z,96882.19
2018-11-04T13:56:45.779Z,96885.94
2018-11-04T13:59:12.978Z,96883.56
2018-11-04T14:01:40.264Z,96878.59
2018-11-04T14:04:07.442Z,96871.70
2018-11-04T14:06:34.894Z,96874.98
2018-11-04T14:09:02.189Z,96867.83
2018-11-04T14:11:29.415Z,96882.07
2018-11-04T14:13:56.662Z,96865.62
2018-11-04T14:16:23.871Z,96872.95
2018-11-04T14:18:51.069Z,96866.49
2018-11-04T14:21:18.270Z,96864.64
2018-11-04T14:23:45.576Z,96869.39
2018-11-04T14:26:12.713Z,96876.69
2018-11-04T14:28:40.182Z,96859.78
2018-11-04T14:31:07.487Z,96850.23
2018-11-04T14:33:34.624Z,96847.42
2018-11-04T14:36:01.780Z,96843.08
2018-11-04T14:38:28.949Z,96838.80
2018-11-04T14:40:56.179Z,96844.41
2018-11-04T14:43:23.405Z,96848.23
2018-11-04T14:45:50.675Z,96844.63
2018-11-04T14:48:17.791Z,96828.62
2018-11-04T14:50:45.359Z,96837.10
2018-11-04T14:53:12.495Z,96838.97
2018-11-04T14:55:39.685Z,96843.48
2018-11-04T14:58:06.866Z,96842.62
2018-11-04T15:00:35.608Z,96836.97
2018-11-04T15:03:03.792Z,96836.66
2018-11-04T15:05:31.048Z,96836.34
2018-11-04T15:07:58.191Z,96832.77
2018-11-04T15:10:25.344Z,96841.08
2018-11-04T15:12:52.541Z,96841.39
2018-11-04T15:15:19.754Z,96835.50
2018-11-04T15:17:46.959Z,96830.59
2018-11-04T15:20:14.149Z,96832.41
2018-11-04T15:22:44.432Z,96830.30
2018-11-04T15:25:11.701Z,96832.09
2018-11-04T15:27:38.909Z,96821.66
2018-11-04T15:30:07.248Z,96811.97
2018-11-04T15:32:34.427Z,96810.25
2018-11-04T15:35:01.636Z,96814.44
2018-11-04T15:37:28.885Z,96815.84
2018-11-04T15:39:56.048Z,96819.44
2018-11-04T15:42:23.240Z,96821.68
2018-11-04T15:44:50.477Z,96816.31
2018-11-04T15:47:17.721Z,96803.11
2018-11-04T15:49:45.072Z,96810.41
2018-11-04T15:52:12.302Z,96805.91
2018-11-04T15:54:39.512Z,96809.01
2018-11-04T15:57:14.748Z,96812.89
2018-11-04T15:59:42.403Z,96803.17
2018-11-04T16:02:09.743Z,96811.42
2018-11-04T16:04:44.551Z,96804.64
2018-11-04T16:07:04.431Z,96808.92
2018-11-04T16:09:31.637Z,96800.39
2018-11-04T16:11:58.884Z,96808.37
2018-11-04T16:14:26.131Z,96800.67
2018-11-04T16:16:53.328Z,96799.61
2018-11-04T16:19:20.590Z,96803.41
2018-11-04T16:21:47.895Z,96799.06
2018-11-04T16:24:15.196Z,96796.80
2018-11-04T16:26:42.453Z,96790.59
2018-11-04T16:29:09.645Z,96801.08
2018-11-04T16:31:36.924Z,96796.66
2018-11-04T16:34:04.219Z,96790.19
2018-11-04T16:36:31.568Z,96794.87
2018-11-04T16:38:59.408Z,96781.52
2018-11-04T16:41:26.603Z,96790.82
2018-11-04T16:43:53.896Z,96789.18
2018-11-04T16:46:21.162Z,96797.05
2018-11-04T16:48:48.435Z,96802.80
2018-11-04T16:51:15.736Z,96792.77
2018-11-04T16:53:42.955Z,96807.05
2018-11-04T16:56:10.379Z,96797.66
2018-11-04T16:58:37.534Z,96795.65
2018-11-04T17:01:04.943Z,96800.22
2018-11-04T17:03:32.116Z,96799.44
2018-11-04T17:05:59.325Z,96805.50
2018-11-04T17:08:26.579Z,96796.97
2018-11-04T17:10:53.883Z,96794.72
2018-11-04T17:13:21.109Z,96788.89
2018-11-04T17:15:48.396Z,96788.89
2018-11-04T17:18:15.831Z,96791.82
2018-11-04T17:20:42.937Z,96781.66
2018-11-04T17:23:10.191Z,96785.77
2018-11-04T17:25:37.386Z,96784.21
2018-11-04T17:28:05.096Z,96791.22
2018-11-04T17:30:32.368Z,96792.63
2018-11-04T17:32:59.595Z,96793.69
2018-11-04T17:35:26.884Z,96786.80
2018-11-04T17:37:54.186Z,96786.85
2018-11-04T17:40:21.437Z,96779.47
2018-11-04T17:42:48.679Z,96787.55
2018-11-04T17:45:16.469Z,96793.23
2018-11-04T17:47:44.223Z,96788.27
2018-11-04T17:50:13.685Z,96789.81
2018-11-04T17:52:41.022Z,96787.80
2018-11-04T17:55:08.807Z,96774.81
2018-11-04T17:57:43.157Z,96773.27
2018-11-04T18:00:10.873Z,96765.94
2018-11-04T18:02:38.525Z,96771.48
2018-11-04T18:05:06.408Z,96764.07
2018-11-04T18:07:33.650Z,96756.55
2018-11-04T18:10:00.917Z,96750.25
2018-11-04T18:12:28.133Z,96756.77
2018-11-04T18:14:55.351Z,96754.68
2018-11-04T18:17:22.565Z,96759.19
2018-11-04T18:19:49.816Z,96749.25
2018-11-04T18:22:17.009Z,96749.54
2018-11-04T18:24:44.348Z,96752.73
2018-11-04T18:27:11.619Z,96754.83
2018-11-04T18:29:38.878Z,96758.50
2018-11-04T18:32:06.822Z,96752.03
2018-11-04T18:34:34.072Z,96746.52
2018-11-04T18:37:01.356Z,96752.81
2018-11-04T18:39:28.665Z,96746.29
2018-11-04T18:41:55.912Z,96741.55
2018-11-04T18:44:23.099Z,96730.75
2018-11-04T18:46:50.282Z,96738.27
2018-11-04T18:49:17.492Z,96739.77
2018-11-04T18:51:44.735Z,96738.59
2018-11-04T18:54:11.924Z,96740.92
2018-11-04T18:56:39.128Z,96737.95
2018-11-04T18:59:06.417Z,96742.46
2018-11-04T19:01:33.610Z,96733.77
2018-11-04T19:04:00.779Z,96737.78
2018-11-04T19:06:27.967Z,96730.48
2018-11-04T19:08:55.212Z,96738.50
2018-11-04T19:11:22.540Z,96736.23
2018-11-04T19:13:49.721Z,96733.75
2018-11-04T19:16:16.926Z,96730.25
2018-11-04T19:18:44.226Z,96736.08
2018-11-04T19:21:11.411Z,96736.46
2018-11-04T19:23:38.583Z,96738.64
2018-11-04T19:26:05.809Z,96736.17
2018-11-04T19:28:32.991Z,96741.45
2018-11-04T19:31:00.238Z,96731.34
2018-11-04T19:33:27.443Z,96730.56
2018-11-04T19:35:54.682Z,96733.98
2018-11-04T19:38:21.850Z,96727.44
2018-11-04T19:40:49.055Z,96729.30
2018-11-04T19:43:17.072Z,96729.02
2018-11-04T19:45:44.266Z,96723.73
2018-11-04T19:48:11.577Z,96720.83
2018-11-04T19:50:38.762Z,96711.12
2018-11-04T19:53:06.114Z,96708.88
2018-11-04T19:55:33.297Z,96709.11
2018-11-04T19:58:00.521Z,96712.38
2018-11-04T20:00:27.770Z,96720.38
2018-11-04T20:02:55.006Z,96721.92
2018-11-04T20:05:22.330Z,96725.88
2018-11-04T20:07:49.420Z,96725.34
2018-11-04T20:10:18.073Z,96733.75
2018-11-04T20:12:50.974Z,96730.48
2018-11-04T20:15:18.245Z,96727.06
2018-11-04T20:17:46.307Z,96724.96
2018-11-04T20:20:15.587Z,96722.82
2018-11-04T20:22:42.757Z,96716.98
2018-11-04T20:25:15.528Z,96730.28
2018-11-04T20:27:42.733Z,96728.05
2018-11-04T20:30:11.253Z,96713.25
2018-11-04T20:32:44.393Z,96713.51
2018-11-04T20:35:11.758Z,96717.16
2018-11-04T20:37:39.017Z,96705.32
2018-11-04T20:40:11.973Z,96693.04
2018-11-04T20:42:39.170Z,96692.27
2018-11-04T20:45:06.599Z,96703.20
2018-11-04T20:47:39.407Z,96697.33
2018-11-04T20:50:12.439Z,96710.04
2018-11-04T20:52:39.703Z,96696.34
2018-11-04T20:55:06.977Z,96697.05
2018-11-04T20:57:57.304Z,96693.92
2018-11-04T21:00:24.453Z,96684.77
2018-11-04T21:02:51.625Z,96676.67
2018-11-04T21:05:18.793Z,96678.77
2018-11-04T21:07:45.984Z,96680.73
2018-11-04T21:10:13.269Z,96680.27
2018-11-04T21:12:40.497Z,96686.37
2018-11-04T21:15:07.945Z,96692.21
2018-11-04T21:17:35.152Z,96675.80
2018-11-04T21:20:02.460Z,96684.05
2018-11-04T21:22:29.669Z,96690.89
2018-11-04T21:24:56.953Z,96671.06
2018-11-04T21:27:24.261Z,96665.54
2018-11-04T21:29:51.496Z,96669.35
2018-11-04T21:32:18.652Z,96669.96
2018-11-04T21:34:46.145Z,96667.87
2018-11-04T21:37:13.327Z,96666.77
2018-11-04T21:39:40.530Z,96657.93
2018-11-04T21:42:07.765Z,96647.31
2018-11-04T21:44:34.940Z,96659.12
2018-11-04T21:47:02.021Z,96655.67
2018-11-04T21:49:29.213Z,96659.94
2018-11-04T21:51:56.503Z,96650.77
2018-11-04T21:54:23.776Z,96656.52
2018-11-04T21:56:50.913Z,96653.97
2018-11-04T21:59:18.068Z,96652.28
2018-11-04T22:01:45.256Z,96652.52
2018-11-04T22:04:12.499Z,96660.97
2018-11-04T22:06:39.597Z,96661.73
2018-11-04T22:09:07.549Z,96655.28
2018-11-04T22:11:34.713Z,96658.89
2018-11-04T22:14:02.034Z,96661.95
2018-11-04T22:16:29.112Z,96658.59
2018-11-04T22:18:56.330Z,96648.84
2018-11-04T22:21:23.532Z,96655.84
2018-11-04T22:23:50.685Z,96660.44
2018-11-04T22:26:17.915Z,96659.30
2018-11-04T22:28:45.053Z,96642.05
2018-11-04T22:31:12.207Z,96657.77
2018-11-04T22:33:39.356Z,96654.27
2018-11-04T22:36:06.596Z,96646.99
2018-11-04T22:38:33.759Z,96647.08
2018-11-04T22:41:00.972Z,96641.17
2018-11-04T22:43:28.166Z,96642.13
2018-11-04T22:45:55.421Z,96646.40
2018-11-04T22:48:22.578Z,96639.11
2018-11-04T22:50:49.740Z,96644.70
2018-11-04T22:53:16.874Z,96656.50
2018-11-04T22:55:44.063Z,96654.78
2018-11-04T22:58:11.201Z,96651.94
2018-11-04T23:00:44.655Z,96632.05
2018-11-04T23:03:11.998Z,96645.41
2018-11-04T23:05:39.196Z,96648.99
2018-11-04T23:08:06.816Z,96644.55
2018-11-04T23:10:34.067Z,96656.13
2018-11-04T23:13:01.230Z,96649.69
2018-11-04T23:15:28.461Z,96642.99
2018-11-04T23:17:55.634Z,96627.39
2018-11-04T23:20:22.827Z,96624.51
2018-11-04T23:22:49.983Z,96622.58
2018-11-04T23:25:17.187Z,96616.81
2018-11-04T23:27:44.378Z,96604.17
2018-11-04T23:30:13.651Z,96605.78
2018-11-04T23:32:40.979Z,96601.23
2018-11-04T23:35:09.103Z,96605.49
2018-11-04T23:37:36.263Z,96598.23
2018-11-04T23:40:03.939Z,96606.91
2018-11-04T23:42:31.162Z,96606.75
2018-11-04T23:44:58.348Z,96608.15
2018-11-04T23:47:25.597Z,96601.93
2018-11-04T23:49:52.759Z,96599.50
2018-11-04T23:52:19.980Z,96598.27
2018-11-04T23:54:47.141Z,96590.09
2018-11-04T23:57:14.320Z,96592.19
2018-11-04T23:59:41.506Z,96594.83
